KBKF

Buckley AFB Airport

Aurora, Colorado, USA
METAR KBKF 201158Z 22007KT 10SM BKN200 05/M08 A2974 RMK AO2A SLP036 T00501085 10092 20050 58002
Observed Flight Rules
Jan-20 @ 11:58 UTC (an hour ago) Visual Flight Rules
Wind Visibility Clouds
220° at 7 knots 10 miles
  • Broken at 20,000' AGL
Temperatures Readings
Current 5°C / 41°F
Dewpoint -9°C / 16°F
Humidity 36%
Altimeter 29.74" Hg
Pressure 1003.6 hPa
Elevation 1726
METAR KBKF 201158Z 22007KT 10SM BKN200 05/M08 A2974 RMK AO2A SLP036 T00501085 10092 20050 58002
Observed Flight Rules
Jan-20 @ 11:58 UTC
(an hour ago)
VFR
Wind Visibility
220° at 7 knots 10 miles
Clouds
  • Broken at 20,000' AGL
Temperature Dewpoint
5°C / 41°F -9°C / 16°F
Humidity Altimeter Pressure
36% 29.74" Hg 1003.6 hPa